createdAt,value
2023-03-06T00:00:28.418Z,3.57
2023-03-06T00:02:55.269Z,3.58
2023-03-06T00:05:22.132Z,3.59
2023-03-06T00:07:48.689Z,3.58
2023-03-06T00:10:17.804Z,3.58
2023-03-06T00:12:44.555Z,3.58
2023-03-06T00:15:13.593Z,3.62
2023-03-06T00:17:40.707Z,3.48
2023-03-06T00:20:09.396Z,3.54
2023-03-06T00:22:35.940Z,3.63
2023-03-06T00:25:02.492Z,3.63
2023-03-06T00:27:30.678Z,3.63
2023-03-06T00:29:57.944Z,3.67
2023-03-06T00:32:27.414Z,3.67
2023-03-06T00:34:55.638Z,3.41
2023-03-06T00:37:23.575Z,3.49
2023-03-06T00:39:50.562Z,3.40
2023-03-06T00:42:17.937Z,3.43
2023-03-06T00:44:45.044Z,3.50
2023-03-06T00:47:12.114Z,3.40
2023-03-06T00:49:40.073Z,3.37
2023-03-06T00:52:06.956Z,3.09
2023-03-06T00:54:33.503Z,3.19
2023-03-06T00:57:00.128Z,3.03
2023-03-06T00:59:26.730Z,2.91
2023-03-06T01:01:53.503Z,2.90
2023-03-06T01:04:20.150Z,2.97
2023-03-06T01:06:49.713Z,2.91
2023-03-06T01:09:16.288Z,2.86
2023-03-06T01:11:43.056Z,2.91
2023-03-06T01:14:11.052Z,2.83
2023-03-06T01:16:37.699Z,2.77
2023-03-06T01:19:04.378Z,2.77
2023-03-06T01:21:31.111Z,2.81
2023-03-06T01:23:59.891Z,2.76
2023-03-06T01:26:26.769Z,2.82
2023-03-06T01:28:53.340Z,2.78
2023-03-06T01:31:20.060Z,2.66
2023-03-06T01:33:46.887Z,2.79
2023-03-06T01:36:14.087Z,2.83
2023-03-06T01:38:40.665Z,2.84
2023-03-06T01:41:09.406Z,2.75
2023-03-06T01:43:38.803Z,2.74
2023-03-06T01:46:29.391Z,2.84
2023-03-06T01:48:59.214Z,2.84
2023-03-06T01:51:30.321Z,2.87
2023-03-06T01:53:59.708Z,2.76
2023-03-06T01:56:28.648Z,2.84
2023-03-06T01:58:56.041Z,2.86
2023-03-06T02:01:23.351Z,2.76
2023-03-06T02:03:51.059Z,2.75
2023-03-06T02:06:18.144Z,2.90
2023-03-06T02:08:45.122Z,2.81
2023-03-06T02:11:14.314Z,2.87
2023-03-06T02:13:43.332Z,2.89
2023-03-06T02:16:10.960Z,2.73
2023-03-06T02:18:39.862Z,2.82
2023-03-06T02:21:08.547Z,2.89
2023-03-06T02:23:45.696Z,2.79
2023-03-06T02:26:14.860Z,2.88
2023-03-06T02:28:41.798Z,2.65
2023-03-06T02:31:16.955Z,2.87
2023-03-06T02:33:43.666Z,2.85
2023-03-06T02:36:15.711Z,2.62
2023-03-06T02:38:47.511Z,2.79
2023-03-06T02:41:15.689Z,2.84
2023-03-06T02:43:43.866Z,2.82
2023-03-06T02:46:10.642Z,2.75
2023-03-06T02:48:37.307Z,2.55
2023-03-06T02:51:03.952Z,2.72
2023-03-06T02:53:32.144Z,2.85
2023-03-06T02:55:59.866Z,2.84
2023-03-06T02:58:27.936Z,2.80
2023-03-06T03:00:54.661Z,2.88
2023-03-06T03:03:21.369Z,2.87
2023-03-06T03:05:48.041Z,2.88
2023-03-06T03:08:22.647Z,2.77
2023-03-06T03:10:52.645Z,2.75
2023-03-06T03:13:19.861Z,2.88
2023-03-06T03:15:59.036Z,2.90
2023-03-06T03:18:25.769Z,2.90
2023-03-06T03:20:53.480Z,2.90
2023-03-06T03:23:20.225Z,2.90
2023-03-06T03:25:46.767Z,2.91
2023-03-06T03:28:13.695Z,2.57
2023-03-06T03:30:41.328Z,2.89
2023-03-06T03:33:10.865Z,2.85
2023-03-06T03:35:38.461Z,2.89
2023-03-06T03:38:05.151Z,2.66
2023-03-06T03:40:31.743Z,2.90
2023-03-06T03:42:59.240Z,2.87
2023-03-06T03:45:25.891Z,2.85
2023-03-06T03:47:52.568Z,2.79
2023-03-06T03:50:22.611Z,2.76
2023-03-06T03:52:49.764Z,2.87
2023-03-06T03:55:16.599Z,2.89
2023-03-06T03:57:43.211Z,2.90
2023-03-06T04:00:11.867Z,2.78
2023-03-06T04:02:41.648Z,2.92
2023-03-06T04:05:21.388Z,2.92
2023-03-06T04:07:48.651Z,2.93
2023-03-06T04:10:16.199Z,2.85
2023-03-06T04:12:43.716Z,2.96
2023-03-06T04:15:11.526Z,2.98
2023-03-06T04:17:38.895Z,2.89
2023-03-06T04:20:09.943Z,2.86
2023-03-06T04:22:38.131Z,2.94
2023-03-06T04:25:05.479Z,2.94
2023-03-06T04:27:32.159Z,2.96
2023-03-06T04:29:58.990Z,2.98
2023-03-06T04:32:26.073Z,2.80
2023-03-06T04:34:52.718Z,3.03
2023-03-06T04:37:21.694Z,3.06
2023-03-06T04:39:50.094Z,3.01
2023-03-06T04:42:16.961Z,2.99
2023-03-06T04:44:43.515Z,2.98
2023-03-06T04:47:10.443Z,2.97
2023-03-06T04:49:37.144Z,2.95
2023-03-06T04:52:04.220Z,2.97
2023-03-06T04:54:31.175Z,2.80
2023-03-06T04:57:00.338Z,2.93
2023-03-06T04:59:27.237Z,2.84
2023-03-06T05:01:54.248Z,3.00
2023-03-06T05:04:20.901Z,2.99
2023-03-06T05:06:47.474Z,3.02
2023-03-06T05:09:14.010Z,2.93
2023-03-06T05:11:40.861Z,3.03
2023-03-06T05:14:08.870Z,3.01
2023-03-06T05:16:35.538Z,3.03
2023-03-06T05:19:02.093Z,3.02
2023-03-06T05:21:28.748Z,3.02
2023-03-06T05:23:55.300Z,3.01
2023-03-06T05:26:22.025Z,3.02
2023-03-06T05:28:48.548Z,2.89
2023-03-06T05:31:16.883Z,2.99
2023-03-06T05:33:43.550Z,2.97
2023-03-06T05:36:11.187Z,2.94
2023-03-06T05:38:38.016Z,2.96
2023-03-06T05:41:05.042Z,2.98
2023-03-06T05:43:31.580Z,3.01
2023-03-06T05:46:02.173Z,3.02
2023-03-06T05:48:30.283Z,3.03
2023-03-06T05:50:57.109Z,2.96
2023-03-06T05:53:23.685Z,2.98
2023-03-06T05:55:56.446Z,2.99
2023-03-06T05:58:23.203Z,2.89
2023-03-06T06:00:49.700Z,3.03
2023-03-06T06:03:16.394Z,2.96
2023-03-06T06:05:44.344Z,2.98
2023-03-06T06:08:10.945Z,3.04
2023-03-06T06:10:38.184Z,3.00
2023-03-06T06:13:04.840Z,3.01
2023-03-06T06:15:31.484Z,3.02
2023-03-06T06:17:58.224Z,3.05
2023-03-06T06:20:25.355Z,2.96
2023-03-06T06:22:53.380Z,3.02
2023-03-06T06:25:19.997Z,2.96
2023-03-06T06:27:46.659Z,2.94
2023-03-06T06:30:13.515Z,2.99
2023-03-06T06:32:40.253Z,3.02
2023-03-06T06:35:07.394Z,3.02
2023-03-06T06:37:34.014Z,2.98
2023-03-06T06:40:01.940Z,3.05
2023-03-06T06:42:36.961Z,3.07
2023-03-06T06:45:06.815Z,3.02
2023-03-06T06:47:33.348Z,2.89
2023-03-06T06:49:59.998Z,2.92
2023-03-06T06:52:26.655Z,3.02
2023-03-06T06:54:53.505Z,3.08
2023-03-06T06:57:21.389Z,3.02
2023-03-06T06:59:48.023Z,3.06
2023-03-06T07:02:15.448Z,3.04
2023-03-06T07:05:00.426Z,3.06
2023-03-06T07:07:29.088Z,2.91
2023-03-06T07:09:55.827Z,3.02
2023-03-06T07:12:23.803Z,3.04
2023-03-06T07:14:50.429Z,3.04
2023-03-06T07:17:17.058Z,3.06
2023-03-06T07:19:43.568Z,3.10
2023-03-06T07:22:10.362Z,2.98
2023-03-06T07:24:36.916Z,3.02
2023-03-06T07:27:03.640Z,2.94
2023-03-06T07:29:31.559Z,2.95
2023-03-06T07:31:58.196Z,3.12
2023-03-06T07:34:24.801Z,3.15
2023-03-06T07:36:51.431Z,3.17
2023-03-06T07:39:18.339Z,3.12
2023-03-06T07:41:44.972Z,3.08
2023-03-06T07:44:11.589Z,3.16
2023-03-06T07:46:39.592Z,3.19
2023-03-06T07:49:06.118Z,3.20
2023-03-06T07:51:32.854Z,3.22
2023-03-06T07:53:59.408Z,3.21
2023-03-06T07:56:26.085Z,3.18
2023-03-06T07:58:52.907Z,3.25
2023-03-06T08:01:21.498Z,3.23
2023-03-06T08:03:49.707Z,3.27
2023-03-06T08:06:18.499Z,3.24
2023-03-06T08:08:46.606Z,3.25
2023-03-06T08:11:15.187Z,3.34
2023-03-06T08:13:42.237Z,3.35
2023-03-06T08:16:09.766Z,3.41
2023-03-06T08:18:36.486Z,3.37
2023-03-06T08:21:06.656Z,3.39
2023-03-06T08:23:33.935Z,3.42
2023-03-06T08:26:02.958Z,3.38
2023-03-06T08:28:29.861Z,3.50
2023-03-06T08:30:57.700Z,3.44
2023-03-06T08:33:24.327Z,3.50
2023-03-06T08:35:52.114Z,3.48
2023-03-06T08:38:20.024Z,3.57
2023-03-06T08:40:46.813Z,3.62
2023-03-06T08:43:14.365Z,3.63
2023-03-06T08:45:41.021Z,3.74
2023-03-06T08:48:07.754Z,3.82
2023-03-06T08:50:34.343Z,3.83
2023-03-06T08:53:00.854Z,3.88
2023-03-06T08:55:28.933Z,3.93
2023-03-06T08:57:55.464Z,3.98
2023-03-06T09:00:22.538Z,4.02
2023-03-06T09:02:49.120Z,4.08
2023-03-06T09:05:15.835Z,4.06
2023-03-06T09:07:42.389Z,4.02
2023-03-06T09:10:14.989Z,4.02
2023-03-06T09:12:50.095Z,4.06
2023-03-06T09:15:17.938Z,4.07
2023-03-06T09:17:44.525Z,4.06
2023-03-06T09:20:12.342Z,4.00
2023-03-06T09:22:38.946Z,4.01
2023-03-06T09:25:08.378Z,4.01
2023-03-06T09:27:35.041Z,4.07
2023-03-06T09:30:03.950Z,4.04
2023-03-06T09:32:30.527Z,4.09
2023-03-06T09:34:57.143Z,4.12
2023-03-06T09:37:23.726Z,4.20
2023-03-06T09:39:50.325Z,4.26
2023-03-06T09:42:20.123Z,4.35
2023-03-06T09:44:51.900Z,4.50
2023-03-06T09:47:48.989Z,4.29
2023-03-06T09:50:26.258Z,4.49
2023-03-06T09:53:15.411Z,4.42
2023-03-06T09:55:45.757Z,4.43
2023-03-06T09:58:16.201Z,4.48
2023-03-06T10:00:50.967Z,4.60
2023-03-06T10:03:24.576Z,4.62
2023-03-06T10:05:57.150Z,4.69
2023-03-06T10:08:28.588Z,4.67
2023-03-06T10:11:00.177Z,4.73
2023-03-06T10:13:32.537Z,4.78
2023-03-06T10:16:06.922Z,4.66
2023-03-06T10:18:35.046Z,4.72
2023-03-06T10:21:18.804Z,4.59
2023-03-06T10:23:52.828Z,4.67
2023-03-06T10:26:22.542Z,4.76
2023-03-06T10:28:56.941Z,4.85
2023-03-06T10:31:26.326Z,4.77
2023-03-06T10:33:56.879Z,4.64
2023-03-06T10:36:26.055Z,4.80
2023-03-06T10:38:53.784Z,4.76
2023-03-06T10:41:25.123Z,4.68
2023-03-06T10:44:18.023Z,4.77
2023-03-06T10:46:46.346Z,4.81
2023-03-06T10:49:29.399Z,4.99
2023-03-06T10:51:57.862Z,4.96
2023-03-06T10:54:25.258Z,4.99
2023-03-06T10:56:51.881Z,5.01
2023-03-06T10:59:20.506Z,5.08
2023-03-06T11:01:48.798Z,5.09
2023-03-06T11:04:22.842Z,4.90
2023-03-06T11:07:05.788Z,5.06
2023-03-06T11:09:33.197Z,5.09
2023-03-06T11:12:20.436Z,5.13
2023-03-06T11:14:47.076Z,4.97
2023-03-06T11:17:27.616Z,4.91
2023-03-06T11:20:15.388Z,4.78
2023-03-06T11:22:49.240Z,4.87
2023-03-06T11:25:19.036Z,4.70
2023-03-06T11:27:49.212Z,5.06
2023-03-06T11:30:20.234Z,5.00
2023-03-06T11:32:51.191Z,5.06
2023-03-06T11:35:24.525Z,5.19
2023-03-06T11:37:56.210Z,5.36
2023-03-06T11:40:28.246Z,5.58
2023-03-06T11:43:03.001Z,5.61
2023-03-06T11:45:34.392Z,5.49
2023-03-06T11:48:14.753Z,5.58
2023-03-06T11:50:43.655Z,5.66
2023-03-06T11:53:14.523Z,5.69
2023-03-06T11:55:49.912Z,5.63
2023-03-06T11:58:38.333Z,5.65
2023-03-06T12:01:09.135Z,5.56
2023-03-06T12:04:07.062Z,5.32
2023-03-06T12:06:45.678Z,5.39
2023-03-06T12:09:24.747Z,5.15
2023-03-06T12:12:03.844Z,5.22
2023-03-06T12:14:45.429Z,5.34
2023-03-06T12:17:20.979Z,5.42
2023-03-06T12:20:00.573Z,5.41
2023-03-06T12:22:41.661Z,5.36
2023-03-06T12:25:42.218Z,5.49
2023-03-06T12:28:31.005Z,5.47
2023-03-06T12:31:22.483Z,5.36
2023-03-06T12:34:01.032Z,5.38
2023-03-06T12:36:38.495Z,5.41
2023-03-06T12:39:17.033Z,5.46
2023-03-06T12:41:57.620Z,5.47
2023-03-06T12:44:49.574Z,5.45
2023-03-06T12:47:19.954Z,5.39
2023-03-06T12:49:53.120Z,5.39
2023-03-06T12:52:29.646Z,5.25
2023-03-06T12:54:58.395Z,5.27
2023-03-06T12:57:26.616Z,5.20
2023-03-06T12:59:54.206Z,5.27
2023-03-06T13:03:05.076Z,5.20
2023-03-06T13:05:42.513Z,5.17
2023-03-06T13:08:35.430Z,5.14
2023-03-06T13:11:28.019Z,5.06
2023-03-06T13:13:56.801Z,5.13
2023-03-06T13:16:28.943Z,5.26
2023-03-06T13:19:03.914Z,5.38
2023-03-06T13:22:01.899Z,5.45
2023-03-06T13:24:30.598Z,5.45
2023-03-06T13:27:03.421Z,5.52
2023-03-06T13:29:52.404Z,5.57
2023-03-06T13:32:30.037Z,5.62
2023-03-06T13:34:56.709Z,5.71
2023-03-06T13:37:48.476Z,5.77
2023-03-06T13:40:34.432Z,5.66
2023-03-06T13:43:21.786Z,5.78
2023-03-06T13:45:49.968Z,5.77
2023-03-06T13:48:44.402Z,5.67
2023-03-06T13:51:22.852Z,5.65
2023-03-06T13:54:30.293Z,5.68
2023-03-06T13:57:23.029Z,5.68
2023-03-06T14:00:34.305Z,5.56
2023-03-06T14:03:27.086Z,5.77
2023-03-06T14:05:53.867Z,5.63
2023-03-06T14:08:22.680Z,5.82
2023-03-06T14:11:00.597Z,5.89
2023-03-06T14:13:41.877Z,5.95
2023-03-06T14:16:19.844Z,5.88
2023-03-06T14:18:51.129Z,6.05
2023-03-06T14:21:28.018Z,6.02
2023-03-06T14:24:00.552Z,5.83
2023-03-06T14:26:31.706Z,5.87
2023-03-06T14:28:59.683Z,5.94
2023-03-06T14:31:30.129Z,5.69
2023-03-06T14:33:59.980Z,5.66
2023-03-06T14:36:33.808Z,5.74
2023-03-06T14:39:02.979Z,5.85
2023-03-06T14:41:31.545Z,5.84
2023-03-06T14:44:08.727Z,5.87
2023-03-06T14:46:35.910Z,5.88
2023-03-06T14:49:07.318Z,5.60
2023-03-06T14:51:40.663Z,5.76
2023-03-06T14:54:14.091Z,5.86
2023-03-06T14:56:42.134Z,5.82
2023-03-06T14:59:13.753Z,5.57
2023-03-06T15:01:42.145Z,5.73
2023-03-06T15:04:19.822Z,5.61
2023-03-06T15:06:46.691Z,5.64
2023-03-06T15:09:17.069Z,5.59
2023-03-06T15:11:55.785Z,5.54
2023-03-06T15:14:30.326Z,5.58
2023-03-06T15:17:14.278Z,5.39
2023-03-06T15:19:42.494Z,5.48
2023-03-06T15:22:25.364Z,5.44
2023-03-06T15:24:52.302Z,5.41
2023-03-06T15:27:26.735Z,5.41
2023-03-06T15:29:53.398Z,5.36
2023-03-06T15:32:30.351Z,5.39
2023-03-06T15:35:30.622Z,5.37
2023-03-06T15:37:58.219Z,4.98
2023-03-06T15:40:26.174Z,5.25
2023-03-06T15:42:53.372Z,5.26
2023-03-06T15:45:22.161Z,4.98
2023-03-06T15:47:51.021Z,5.20
2023-03-06T15:50:19.651Z,5.20
2023-03-06T15:52:48.770Z,5.10
2023-03-06T15:55:18.248Z,5.13
2023-03-06T15:57:49.692Z,4.98
2023-03-06T16:00:27.561Z,4.91
2023-03-06T16:02:55.046Z,5.01
2023-03-06T16:05:22.479Z,4.71
2023-03-06T16:07:50.677Z,5.03
2023-03-06T16:10:19.227Z,5.00
2023-03-06T16:12:49.301Z,5.19
2023-03-06T16:15:18.979Z,5.22
2023-03-06T16:17:46.131Z,5.11
2023-03-06T16:20:17.841Z,5.11
2023-03-06T16:22:45.261Z,5.06
2023-03-06T16:25:13.741Z,5.05
2023-03-06T16:27:40.447Z,5.06
2023-03-06T16:30:11.632Z,5.05
2023-03-06T16:32:38.246Z,5.03
2023-03-06T16:35:05.393Z,4.93
2023-03-06T16:37:32.169Z,5.00
2023-03-06T16:39:59.114Z,4.99
2023-03-06T16:42:27.504Z,4.99
2023-03-06T16:44:54.250Z,4.98
2023-03-06T16:47:20.920Z,4.89
2023-03-06T16:49:47.508Z,4.92
2023-03-06T16:52:14.443Z,4.89
2023-03-06T16:54:42.399Z,4.85
2023-03-06T16:57:13.913Z,4.81
2023-03-06T16:59:42.364Z,4.67
2023-03-06T17:02:09.800Z,4.68
2023-03-06T17:04:36.630Z,4.62
2023-03-06T17:07:03.691Z,4.41
2023-03-06T17:09:30.941Z,4.48
2023-03-06T17:11:57.630Z,4.24
2023-03-06T17:14:24.161Z,4.35
2023-03-06T17:16:53.773Z,4.18
2023-03-06T17:19:20.901Z,4.17
2023-03-06T17:21:49.951Z,4.10
2023-03-06T17:24:16.488Z,3.96
2023-03-06T17:26:43.070Z,4.00
2023-03-06T17:29:09.592Z,3.85
2023-03-06T17:31:36.188Z,3.87
2023-03-06T17:34:04.042Z,3.87
2023-03-06T17:36:31.700Z,3.73
2023-03-06T17:38:59.863Z,3.78
2023-03-06T17:41:26.806Z,3.69
2023-03-06T17:43:55.957Z,3.60
2023-03-06T17:46:22.764Z,3.52
2023-03-06T17:48:49.722Z,3.51
2023-03-06T17:51:18.126Z,3.47
2023-03-06T17:53:44.854Z,3.44
2023-03-06T17:56:13.836Z,3.41
2023-03-06T17:58:40.512Z,3.34
2023-03-06T18:01:11.268Z,3.28
2023-03-06T18:03:38.720Z,3.11
2023-03-06T18:06:05.996Z,2.88
2023-03-06T18:08:33.955Z,3.03
2023-03-06T18:11:01.222Z,2.98
2023-03-06T18:13:27.836Z,2.88
2023-03-06T18:15:54.405Z,2.90
2023-03-06T18:18:21.124Z,2.75
2023-03-06T18:20:47.899Z,2.79
2023-03-06T18:23:14.492Z,2.78
2023-03-06T18:25:42.430Z,2.71
2023-03-06T18:28:09.179Z,2.63
2023-03-06T18:30:36.092Z,2.59
2023-03-06T18:33:02.834Z,2.49
2023-03-06T18:35:29.411Z,2.51
2023-03-06T18:37:56.433Z,2.51
2023-03-06T18:40:24.793Z,2.47
2023-03-06T18:42:53.191Z,2.43
2023-03-06T18:45:20.192Z,2.39
2023-03-06T18:47:46.967Z,2.32
2023-03-06T18:50:13.480Z,2.32
2023-03-06T18:52:40.069Z,2.28
2023-03-06T18:55:07.094Z,2.24
2023-03-06T18:57:33.771Z,2.22
2023-03-06T19:00:01.955Z,2.18
2023-03-06T19:02:28.910Z,2.16
2023-03-06T19:04:55.439Z,2.15
2023-03-06T19:07:22.469Z,2.21
2023-03-06T19:09:49.068Z,2.15
2023-03-06T19:12:16.202Z,2.11
2023-03-06T19:14:43.022Z,2.03
2023-03-06T19:17:11.187Z,2.01
2023-03-06T19:19:39.305Z,1.96
2023-03-06T19:22:05.995Z,1.95
2023-03-06T19:24:32.573Z,1.96
2023-03-06T19:26:59.244Z,1.94
2023-03-06T19:29:25.878Z,1.87
2023-03-06T19:31:52.658Z,1.97
2023-03-06T19:34:20.543Z,1.95
2023-03-06T19:36:49.943Z,1.84
2023-03-06T19:39:16.510Z,1.92
2023-03-06T19:41:43.147Z,1.89
2023-03-06T19:44:09.668Z,1.92
2023-03-06T19:46:36.367Z,1.89
2023-03-06T19:49:04.427Z,1.90
2023-03-06T19:51:32.577Z,1.90
2023-03-06T19:53:59.105Z,1.88
2023-03-06T19:56:30.287Z,1.90
2023-03-06T19:58:57.421Z,1.75
2023-03-06T20:01:26.290Z,1.90
2023-03-06T20:03:54.342Z,1.91
2023-03-06T20:06:20.846Z,1.72
2023-03-06T20:08:48.935Z,1.84
2023-03-06T20:11:17.679Z,1.61
2023-03-06T20:13:47.498Z,1.81
2023-03-06T20:16:14.373Z,1.81
2023-03-06T20:18:40.923Z,1.82
2023-03-06T20:21:07.724Z,1.84
2023-03-06T20:23:35.046Z,1.75
2023-03-06T20:26:04.593Z,1.74
2023-03-06T20:28:31.216Z,1.81
2023-03-06T20:30:58.285Z,1.83
2023-03-06T20:33:24.915Z,1.84
2023-03-06T20:35:51.446Z,1.68
2023-03-06T20:38:19.895Z,1.76
2023-03-06T20:40:48.266Z,1.65
2023-03-06T20:43:16.181Z,1.75
2023-03-06T20:45:42.756Z,1.73
2023-03-06T20:48:09.290Z,1.68
2023-03-06T20:50:35.816Z,1.74
2023-03-06T20:53:02.345Z,1.79
2023-03-06T20:55:28.899Z,1.81
2023-03-06T20:57:55.393Z,1.86
2023-03-06T21:00:23.253Z,1.90
2023-03-06T21:02:49.792Z,1.81
2023-03-06T21:05:16.550Z,1.80
2023-03-06T21:07:43.140Z,1.79
2023-03-06T21:10:10.501Z,1.47
2023-03-06T21:12:36.998Z,1.91
2023-03-06T21:15:04.246Z,1.87
2023-03-06T21:17:32.157Z,1.86
2023-03-06T21:19:59.155Z,1.87
2023-03-06T21:22:25.678Z,1.92
2023-03-06T21:24:52.269Z,1.94
2023-03-06T21:27:18.887Z,1.98
2023-03-06T21:29:45.444Z,1.88
2023-03-06T21:32:11.984Z,2.22
2023-03-06T21:34:39.854Z,2.31
2023-03-06T21:37:06.382Z,2.36
2023-03-06T21:39:32.940Z,2.51
2023-03-06T21:41:59.465Z,2.59
2023-03-06T21:44:26.071Z,2.71
2023-03-06T21:46:52.573Z,2.63
2023-03-06T21:49:19.480Z,2.52
2023-03-06T21:51:47.638Z,2.78
2023-03-06T21:54:14.159Z,2.78
2023-03-06T21:56:40.704Z,2.81
2023-03-06T21:59:07.233Z,2.85
2023-03-06T22:01:33.973Z,2.90
2023-03-06T22:04:00.651Z,2.85
2023-03-06T22:06:29.055Z,2.89
2023-03-06T22:08:58.317Z,2.73
2023-03-06T22:11:26.309Z,2.89
2023-03-06T22:13:52.867Z,2.93
2023-03-06T22:16:19.956Z,2.77
2023-03-06T22:18:47.489Z,3.12
2023-03-06T22:21:16.224Z,3.11
2023-03-06T22:23:43.232Z,3.03
2023-03-06T22:26:12.510Z,3.13
2023-03-06T22:28:39.617Z,2.81
2023-03-06T22:31:08.152Z,2.99
2023-03-06T22:33:35.187Z,3.11
2023-03-06T22:36:02.366Z,3.10
2023-03-06T22:38:28.902Z,3.19
2023-03-06T22:40:56.405Z,3.15
2023-03-06T22:43:24.294Z,3.22
2023-03-06T22:45:50.803Z,3.18
2023-03-06T22:48:17.335Z,3.09
2023-03-06T22:50:44.184Z,3.19
2023-03-06T22:53:10.998Z,3.16
2023-03-06T22:55:37.514Z,3.18
2023-03-06T22:58:04.058Z,3.19
2023-03-06T23:00:31.950Z,3.17
2023-03-06T23:02:58.452Z,3.17
2023-03-06T23:05:29.159Z,3.18
2023-03-06T23:07:56.108Z,3.18
2023-03-06T23:10:22.616Z,3.23
2023-03-06T23:13:07.835Z,3.20
2023-03-06T23:15:54.203Z,3.02
2023-03-06T23:18:39.819Z,3.18
2023-03-06T23:21:25.407Z,3.27
2023-03-06T23:24:10.720Z,3.24
2023-03-06T23:26:37.324Z,3.30
2023-03-06T23:29:03.880Z,3.35
2023-03-06T23:31:31.871Z,3.22
2023-03-06T23:34:00.386Z,3.47
2023-03-06T23:36:28.174Z,3.56
2023-03-06T23:38:54.932Z,3.54
2023-03-06T23:41:22.893Z,3.58
2023-03-06T23:43:50.710Z,3.62
2023-03-06T23:46:20.375Z,3.64
2023-03-06T23:48:48.341Z,3.67
2023-03-06T23:51:17.392Z,3.65
2023-03-06T23:53:45.064Z,3.62
2023-03-06T23:56:12.624Z,3.73
2023-03-06T23:58:39.825Z,3.71
